Time;durP1;ratioP1;P1;durP2;ratioP2;P2;SDS_P1;SDS_P2;PMS_P1;PMS_P2;Temp;Humidity;BMP_temperature;BMP_pressure;BME280_temperature;BME280_humidity;BME280_pressure;Samples;Min_cycle;Max_cycle;Signal;HPM_P1;HPM_P2
2022/07/22 00:00:05;;;;;;;4.30;4.00;;;;;;;;;;5045216;28;20227;-72
2022/07/22 00:02:32;;;;;;;8.95;4.60;;;;;;;;;;5050539;28;20202;-72
2022/07/22 00:04:59;;;;;;;4.80;4.43;;;;;;;;;;5062946;28;20223;-73
2022/07/22 00:07:26;;;;;;;5.05;4.65;;;;;;;;;;5050899;28;20213;-73
2022/07/22 00:09:53;;;;;;;4.72;4.40;;;;;;;;;;5061121;28;20670;-73
2022/07/22 00:12:20;;;;;;;5.20;4.70;;;;;;;;;;5053412;28;20206;-73
2022/07/22 00:14:49;;;;;;;4.35;4.05;;;;;;;;;;5048577;28;20203;-72
2022/07/22 00:17:16;;;;;;;4.60;4.30;;;;;;;;;;5050234;28;20571;-73
2022/07/22 00:19:43;;;;;;;5.10;4.22;;;;;;;;;;5063404;28;20206;-71
2022/07/22 00:22:10;;;;;;;4.85;4.47;;;;;;;;;;5055724;28;20222;-71
2022/07/22 00:24:37;;;;;;;4.03;3.80;;;;;;;;;;5059686;28;20234;-70
2022/07/22 00:27:04;;;;;;;6.38;4.97;;;;;;;;;;5051521;28;20313;-67
2022/07/22 00:29:31;;;;;;;4.53;4.22;;;;;;;;;;5056987;28;20269;-69
2022/07/22 00:31:59;;;;;;;5.43;4.68;;;;;;;;;;5063995;28;20237;-66
2022/07/22 00:34:26;;;;;;;5.30;4.60;;;;;;;;;;5049105;28;20204;-69
2022/07/22 00:36:53;;;;;;;4.78;4.38;;;;;;;;;;5054623;28;20214;-69
2022/07/22 00:39:21;;;;;;;4.65;4.35;;;;;;;;;;5044969;28;20626;-68
2022/07/22 00:41:48;;;;;;;5.10;4.38;;;;;;;;;;5048173;28;20256;-68
2022/07/22 00:44:16;;;;;;;6.10;4.65;;;;;;;;;;5046552;28;20737;-69
2022/07/22 00:46:43;;;;;;;5.65;4.07;;;;;;;;;;5059783;28;20268;-69
2022/07/22 00:49:12;;;;;;;6.43;4.30;;;;;;;;;;5063279;28;20230;-68
2022/07/22 00:51:39;;;;;;;4.80;4.50;;;;;;;;;;5064287;28;20211;-68
2022/07/22 00:54:07;;;;;;;4.97;4.55;;;;;;;;;;5062457;28;20213;-68
2022/07/22 00:56:34;;;;;;;4.45;4.15;;;;;;;;;;5044661;28;20235;-68
2022/07/22 00:59:04;;;;;;;6.25;4.35;;;;;;;;;;5060467;28;20206;-68
2022/07/22 01:01:31;;;;;;;4.68;4.35;;;;;;;;;;5044477;28;20306;-69
2022/07/22 01:03:58;;;;;;;4.40;4.00;;;;;;;;;;5060261;28;20227;-68
2022/07/22 01:06:26;;;;;;;6.25;4.88;;;;;;;;;;5052542;28;20213;-68
2022/07/22 01:08:53;;;;;;;4.55;4.20;;;;;;;;;;5064734;28;20218;-68
2022/07/22 01:11:21;;;;;;;4.65;4.30;;;;;;;;;;5058720;28;20214;-68
2022/07/22 01:13:48;;;;;;;5.05;4.57;;;;;;;;;;5047506;28;20215;-68
2022/07/22 01:16:16;;;;;;;5.32;4.50;;;;;;;;;;5048516;28;20207;-68
2022/07/22 01:18:43;;;;;;;5.53;5.03;;;;;;;;;;5067612;28;20720;-68
2022/07/22 01:21:12;;;;;;;6.00;5.32;;;;;;;;;;5066501;28;20206;-68
2022/07/22 01:23:39;;;;;;;4.78;4.47;;;;;;;;;;5057511;28;20215;-69
2022/07/22 01:26:06;;;;;;;7.63;4.50;;;;;;;;;;5053966;28;20212;-68
2022/07/22 01:28:33;;;;;;;5.97;4.80;;;;;;;;;;5048098;28;20662;-68
2022/07/22 01:31:01;;;;;;;5.32;4.93;;;;;;;;;;5063391;28;20268;-68
2022/07/22 01:33:28;;;;;;;5.15;4.75;;;;;;;;;;5062318;28;20229;-67
2022/07/22 01:35:55;;;;;;;7.75;5.55;;;;;;;;;;5065924;28;20383;-67
2022/07/22 01:38:23;;;;;;;5.95;5.35;;;;;;;;;;5067664;28;20249;-67
2022/07/22 01:40:51;;;;;;;4.68;4.35;;;;;;;;;;5062223;28;20206;-67
2022/07/22 01:43:20;;;;;;;5.38;4.60;;;;;;;;;;5064880;28;20215;-66
2022/07/22 01:45:48;;;;;;;7.40;6.35;;;;;;;;;;5049507;28;20232;-66
2022/07/22 01:48:15;;;;;;;5.85;5.30;;;;;;;;;;5065492;28;20203;-67
2022/07/22 01:50:42;;;;;;;7.00;5.03;;;;;;;;;;5058635;28;20207;-66
2022/07/22 01:53:09;;;;;;;8.07;5.07;;;;;;;;;;5056557;28;20253;-67
2022/07/22 01:55:38;;;;;;;5.25;4.80;;;;;;;;;;5065627;28;20227;-67
2022/07/22 01:58:05;;;;;;;5.82;5.18;;;;;;;;;;5061513;28;20595;-67
2022/07/22 02:00:32;;;;;;;5.03;4.70;;;;;;;;;;5064733;28;20210;-67
2022/07/22 02:02:59;;;;;;;6.13;5.07;;;;;;;;;;5065587;28;20214;-67
2022/07/22 02:05:26;;;;;;;5.90;5.25;;;;;;;;;;5059845;28;20230;-67
2022/07/22 02:07:53;;;;;;;5.65;4.85;;;;;;;;;;5049615;28;20214;-67
2022/07/22 02:10:20;;;;;;;5.47;5.07;;;;;;;;;;5053271;28;20203;-67
2022/07/22 02:12:49;;;;;;;6.00;5.28;;;;;;;;;;5066006;28;20230;-67
2022/07/22 02:15:16;;;;;;;5.30;4.90;;;;;;;;;;5061708;28;20650;-67
2022/07/22 02:17:43;;;;;;;6.25;5.10;;;;;;;;;;5059470;28;20215;-67
2022/07/22 02:20:10;;;;;;;5.32;4.93;;;;;;;;;;5067263;28;20268;-67
2022/07/22 02:22:37;;;;;;;5.07;4.70;;;;;;;;;;5065573;28;20217;-66
2022/07/22 02:25:05;;;;;;;6.90;4.93;;;;;;;;;;5046378;28;20266;-67
2022/07/22 02:27:32;;;;;;;4.78;4.40;;;;;;;;;;5060180;28;20198;-67
2022/07/22 02:30:00;;;;;;;6.00;5.50;;;;;;;;;;5066621;28;20207;-67
2022/07/22 02:32:27;;;;;;;6.45;5.13;;;;;;;;;;5055750;28;20218;-67
2022/07/22 02:34:54;;;;;;;5.03;4.72;;;;;;;;;;5053792;28;20293;-67
2022/07/22 02:37:21;;;;;;;6.18;4.95;;;;;;;;;;5061437;28;20674;-67
2022/07/22 02:39:48;;;;;;;4.97;4.57;;;;;;;;;;5059948;28;20603;-67
2022/07/22 02:42:15;;;;;;;5.25;4.78;;;;;;;;;;5062244;28;20216;-67
2022/07/22 02:44:42;;;;;;;5.03;4.72;;;;;;;;;;5064444;28;20287;-67
2022/07/22 02:47:11;;;;;;;8.07;4.45;;;;;;;;;;5061775;28;20217;-67
2022/07/22 02:49:38;;;;;;;7.50;4.93;;;;;;;;;;5048081;28;20219;-68
2022/07/22 02:52:05;;;;;;;6.72;4.55;;;;;;;;;;5063299;28;20264;-67
2022/07/22 02:54:32;;;;;;;6.30;5.25;;;;;;;;;;5065763;28;20226;-67
2022/07/22 02:56:59;;;;;;;5.40;5.00;;;;;;;;;;5051003;28;20266;-67
2022/07/22 02:59:26;;;;;;;5.63;5.13;;;;;;;;;;5067274;28;20288;-67
2022/07/22 03:01:53;;;;;;;5.53;5.13;;;;;;;;;;5060892;28;20204;-67
2022/07/22 03:04:22;;;;;;;5.70;5.20;;;;;;;;;;5049666;28;20207;-67
2022/07/22 03:06:49;;;;;;;5.00;4.70;;;;;;;;;;5045999;28;20216;-67
2022/07/22 03:09:16;;;;;;;5.50;5.00;;;;;;;;;;5047384;28;20269;-67
2022/07/22 03:11:43;;;;;;;6.10;5.03;;;;;;;;;;5059802;28;20716;-68
2022/07/22 03:14:10;;;;;;;5.50;4.88;;;;;;;;;;5066429;28;20209;-67
2022/07/22 03:16:38;;;;;;;6.32;4.90;;;;;;;;;;5065387;28;20214;-67
2022/07/22 03:19:05;;;;;;;6.00;5.28;;;;;;;;;;5072901;28;20404;-68
2022/07/22 03:21:33;;;;;;;4.97;4.55;;;;;;;;;;5070490;28;20219;-67
2022/07/22 03:24:00;;;;;;;6.15;4.90;;;;;;;;;;5068227;28;20214;-67
2022/07/22 03:26:27;;;;;;;7.50;5.50;;;;;;;;;;5052322;28;20223;-67
2022/07/22 03:28:54;;;;;;;5.72;5.10;;;;;;;;;;5063116;28;20219;-68
2022/07/22 03:31:21;;;;;;;5.45;4.93;;;;;;;;;;5050830;28;20266;-67
2022/07/22 03:33:48;;;;;;;5.70;5.18;;;;;;;;;;5072117;28;20215;-67
2022/07/22 03:36:15;;;;;;;5.63;5.22;;;;;;;;;;5068300;28;20207;-67
2022/07/22 03:38:43;;;;;;;5.60;5.20;;;;;;;;;;5068302;28;20706;-67
2022/07/22 03:41:10;;;;;;;5.50;5.07;;;;;;;;;;5060163;28;20204;-67
2022/07/22 03:43:37;;;;;;;5.53;5.10;;;;;;;;;;5055613;28;20274;-67
2022/07/22 03:46:04;;;;;;;5.88;5.38;;;;;;;;;;5057597;28;20227;-67
2022/07/22 03:48:31;;;;;;;6.70;4.82;;;;;;;;;;5068454;28;20207;-67
2022/07/22 03:50:58;;;;;;;6.57;4.88;;;;;;;;;;5051539;28;20208;-67
2022/07/22 03:53:25;;;;;;;5.97;4.85;;;;;;;;;;5066963;28;20195;-67
2022/07/22 03:55:54;;;;;;;5.32;4.93;;;;;;;;;;5068429;28;20250;-67
2022/07/22 03:58:21;;;;;;;5.95;5.25;;;;;;;;;;5059389;28;20326;-68
2022/07/22 04:00:48;;;;;;;6.10;5.47;;;;;;;;;;5064357;28;20253;-66
2022/07/22 04:03:15;;;;;;;5.65;5.15;;;;;;;;;;5065730;28;20286;-65
2022/07/22 04:05:42;;;;;;;5.97;5.32;;;;;;;;;;5062639;28;20261;-66
2022/07/22 04:08:09;;;;;;;5.97;4.72;;;;;;;;;;5058580;28;20211;-68
2022/07/22 04:10:36;;;;;;;8.05;5.10;;;;;;;;;;5066949;28;20797;-68
2022/07/22 04:13:05;;;;;;;4.90;4.50;;;;;;;;;;5057771;28;20250;-67
2022/07/22 04:15:32;;;;;;;7.55;4.45;;;;;;;;;;5053627;28;20206;-66
2022/07/22 04:17:59;;;;;;;5.60;5.20;;;;;;;;;;5055664;28;20212;-68
2022/07/22 04:20:26;;;;;;;5.97;5.38;;;;;;;;;;5063130;28;20260;-66
2022/07/22 04:22:54;;;;;;;4.63;4.30;;;;;;;;;;5057139;28;20209;-67
2022/07/22 04:25:21;;;;;;;5.55;5.00;;;;;;;;;;5063725;28;20764;-67
2022/07/22 04:27:48;;;;;;;5.72;5.22;;;;;;;;;;5069070;28;20211;-67
2022/07/22 04:30:16;;;;;;;9.75;5.40;;;;;;;;;;5068646;28;20751;-67
2022/07/22 04:32:44;;;;;;;5.45;4.68;;;;;;;;;;5061703;28;20302;-67
2022/07/22 04:35:11;;;;;;;8.18;4.80;;;;;;;;;;5068049;28;20294;-67
2022/07/22 04:37:38;;;;;;;5.30;4.90;;;;;;;;;;5065030;28;20218;-66
2022/07/22 04:40:05;;;;;;;6.20;5.20;;;;;;;;;;5065784;28;20215;-66
2022/07/22 04:42:32;;;;;;;8.00;5.32;;;;;;;;;;5057231;28;20245;-66
2022/07/22 04:44:59;;;;;;;5.30;4.85;;;;;;;;;;5068958;28;20234;-67
2022/07/22 04:47:28;;;;;;;5.43;4.93;;;;;;;;;;5064583;28;20257;-67
2022/07/22 04:49:55;;;;;;;5.35;4.93;;;;;;;;;;5067001;28;20215;-66
2022/07/22 04:52:22;;;;;;;6.28;5.00;;;;;;;;;;5052026;28;20200;-67
2022/07/22 04:54:49;;;;;;;5.18;4.78;;;;;;;;;;5068027;28;20227;-67
2022/07/22 04:57:16;;;;;;;5.65;5.10;;;;;;;;;;5051921;28;20339;-66
2022/07/22 04:59:43;;;;;;;5.10;4.63;;;;;;;;;;5067354;28;20309;-66
2022/07/22 05:02:10;;;;;;;5.47;5.07;;;;;;;;;;5067481;28;20202;-66
2022/07/22 05:04:39;;;;;;;5.72;4.80;;;;;;;;;;5063093;28;20513;-67
2022/07/22 05:07:06;;;;;;;5.65;4.95;;;;;;;;;;5056077;28;20219;-66
2022/07/22 05:09:33;;;;;;;5.43;5.00;;;;;;;;;;5058635;28;20210;-66
2022/07/22 05:12:00;;;;;;;5.57;5.05;;;;;;;;;;5055372;28;20233;-67
2022/07/22 05:14:27;;;;;;;5.93;4.78;;;;;;;;;;5058015;28;20252;-67
2022/07/22 05:16:54;;;;;;;5.28;4.78;;;;;;;;;;5053806;28;20214;-68
2022/07/22 05:19:21;;;;;;;5.20;4.90;;;;;;;;;;5057174;28;20578;-67
2022/07/22 05:21:49;;;;;;;5.43;4.90;;;;;;;;;;5061264;28;20207;-67
2022/07/22 05:24:16;;;;;;;6.55;5.45;;;;;;;;;;5055848;28;20203;-67
2022/07/22 05:26:43;;;;;;;5.15;4.68;;;;;;;;;;5054228;28;20227;-66
2022/07/22 05:29:10;;;;;;;5.85;5.00;;;;;;;;;;5053063;28;20199;-67
2022/07/22 05:31:37;;;;;;;5.50;5.00;;;;;;;;;;5064206;28;20258;-66
2022/07/22 05:34:06;;;;;;;5.35;4.85;;;;;;;;;;5059788;28;20216;-67
2022/07/22 05:36:33;;;;;;;5.65;4.95;;;;;;;;;;5049022;28;20258;-67
2022/07/22 05:39:01;;;;;;;4.45;4.15;;;;;;;;;;5068664;28;20217;-65
2022/07/22 05:41:28;;;;;;;5.15;4.72;;;;;;;;;;5051633;28;20219;-67
2022/07/22 05:43:55;;;;;;;6.15;5.55;;;;;;;;;;5049685;28;20696;-68
2022/07/22 05:46:48;;;;;;;5.20;4.70;;;;;;;;;;5049702;28;20227;-67
2022/07/22 05:49:15;;;;;;;6.15;4.60;;;;;;;;;;5057947;28;20228;-69
2022/07/22 05:51:42;;;;;;;4.88;4.47;;;;;;;;;;5067582;28;20256;-70
2022/07/22 05:54:10;;;;;;;5.30;4.82;;;;;;;;;;5068173;28;20211;-71
2022/07/22 05:56:37;;;;;;;5.32;4.93;;;;;;;;;;5060675;28;20709;-71
2022/07/22 05:59:04;;;;;;;5.13;4.53;;;;;;;;;;5066611;28;20214;-72
2022/07/22 06:01:31;;;;;;;5.13;4.28;;;;;;;;;;5071609;28;20260;-72
2022/07/22 06:03:58;;;;;;;4.80;4.30;;;;;;;;;;5071588;28;20203;-72
2022/07/22 06:06:25;;;;;;;5.07;4.68;;;;;;;;;;5060943;28;20294;-72
2022/07/22 06:08:52;;;;;;;5.15;4.00;;;;;;;;;;5052100;28;20247;-72
2022/07/22 06:11:20;;;;;;;7.90;4.82;;;;;;;;;;5051618;28;20239;-71
2022/07/22 06:13:47;;;;;;;4.90;4.50;;;;;;;;;;5051802;28;20693;-72
2022/07/22 06:16:14;;;;;;;5.10;4.70;;;;;;;;;;5057474;28;20199;-72
2022/07/22 06:18:41;;;;;;;5.18;4.40;;;;;;;;;;5071577;28;20203;-72
2022/07/22 06:21:08;;;;;;;5.07;4.75;;;;;;;;;;5071418;28;20260;-72
2022/07/22 06:23:36;;;;;;;6.13;4.88;;;;;;;;;;5071724;28;20223;-72
2022/07/22 06:26:03;;;;;;;4.72;4.43;;;;;;;;;;5069732;28;20322;-72
2022/07/22 06:28:31;;;;;;;4.53;4.22;;;;;;;;;;5063153;28;20218;-73
2022/07/22 06:30:58;;;;;;;4.45;3.90;;;;;;;;;;5070591;28;20209;-72
2022/07/22 06:33:26;;;;;;;5.75;3.92;;;;;;;;;;5070797;28;20220;-73
2022/07/22 06:35:53;;;;;;;4.47;4.18;;;;;;;;;;5067707;28;20599;-73
2022/07/22 06:38:20;;;;;;;4.22;3.92;;;;;;;;;;5070724;28;20684;-70
2022/07/22 06:40:47;;;;;;;4.47;4.18;;;;;;;;;;5065415;28;20215;-71
2022/07/22 06:43:14;;;;;;;6.00;4.32;;;;;;;;;;5071027;28;20203;-72
2022/07/22 06:45:42;;;;;;;4.70;4.30;;;;;;;;;;5070720;28;20223;-72
2022/07/22 06:48:09;;;;;;;4.65;4.35;;;;;;;;;;5057561;28;20212;-71
2022/07/22 06:50:36;;;;;;;4.90;4.50;;;;;;;;;;5055326;28;21008;-71
2022/07/22 06:53:04;;;;;;;5.13;4.32;;;;;;;;;;5061072;28;20208;-71
2022/07/22 06:55:32;;;;;;;5.50;4.40;;;;;;;;;;5054790;28;20433;-69
2022/07/22 06:57:59;;;;;;;6.40;5.05;;;;;;;;;;5059890;28;20298;-69
2022/07/22 07:00:26;;;;;;;4.60;4.30;;;;;;;;;;5057849;28;20211;-67
2022/07/22 07:02:54;;;;;;;4.93;4.47;;;;;;;;;;5051920;28;20211;-68
2022/07/22 07:05:21;;;;;;;4.50;4.10;;;;;;;;;;5058585;28;20206;-69
2022/07/22 07:07:49;;;;;;;4.82;4.43;;;;;;;;;;5054771;28;20222;-68
2022/07/22 07:10:16;;;;;;;5.50;4.68;;;;;;;;;;5049694;28;20204;-63
2022/07/22 07:12:43;;;;;;;5.07;4.78;;;;;;;;;;5067980;28;20765;-66
2022/07/22 07:15:10;;;;;;;9.18;5.40;;;;;;;;;;5051075;28;20207;-65
2022/07/22 07:17:37;;;;;;;14.93;5.45;;;;;;;;;;5050155;28;20212;-66
2022/07/22 07:20:07;;;;;;;4.57;4.25;;;;;;;;;;5052199;28;20670;-64
2022/07/22 07:22:34;;;;;;;5.05;4.47;;;;;;;;;;5049830;28;20211;-64
2022/07/22 07:25:03;;;;;;;4.80;4.40;;;;;;;;;;5065652;28;20211;-64
2022/07/22 07:27:30;;;;;;;5.15;4.70;;;;;;;;;;5069483;28;20748;-64
2022/07/22 07:29:57;;;;;;;7.78;4.40;;;;;;;;;;5067084;28;20207;-64
2022/07/22 07:32:24;;;;;;;4.75;4.38;;;;;;;;;;5063653;28;20199;-64
2022/07/22 07:34:51;;;;;;;9.77;4.85;;;;;;;;;;5049535;28;20689;-64
2022/07/22 07:37:20;;;;;;;5.55;5.05;;;;;;;;;;5050702;28;20240;-64
2022/07/22 07:39:47;;;;;;;5.55;4.90;;;;;;;;;;5062089;28;20224;-64
2022/07/22 07:42:14;;;;;;;4.93;4.63;;;;;;;;;;5067472;28;20215;-64
2022/07/22 07:44:41;;;;;;;12.70;5.38;;;;;;;;;;5068895;28;20211;-64
2022/07/22 07:47:08;;;;;;;8.05;5.53;;;;;;;;;;5053270;28;20228;-64
2022/07/22 07:49:35;;;;;;;10.68;5.95;;;;;;;;;;5059687;28;20207;-65
2022/07/22 07:52:02;;;;;;;5.57;5.18;;;;;;;;;;5067705;28;20226;-65
2022/07/22 07:54:30;;;;;;;6.15;5.07;;;;;;;;;;5069758;28;20223;-65
2022/07/22 07:56:57;;;;;;;5.63;5.03;;;;;;;;;;5056575;28;20227;-64
2022/07/22 07:59:24;;;;;;;4.80;4.50;;;;;;;;;;5062232;28;20207;-64
2022/07/22 08:01:51;;;;;;;5.53;4.82;;;;;;;;;;5064800;28;20222;-65
2022/07/22 08:04:18;;;;;;;5.47;5.07;;;;;;;;;;5069414;28;20264;-65
2022/07/22 08:06:45;;;;;;;7.15;5.13;;;;;;;;;;5068905;28;20231;-64
2022/07/22 08:09:12;;;;;;;6.18;5.68;;;;;;;;;;5062669;28;20210;-64
2022/07/22 08:11:41;;;;;;;6.28;5.63;;;;;;;;;;5067680;28;20625;-64
2022/07/22 08:14:08;;;;;;;6.18;5.43;;;;;;;;;;5069053;28;20207;-64
2022/07/22 08:16:35;;;;;;;5.60;4.63;;;;;;;;;;5050263;28;20859;-64
2022/07/22 08:19:02;;;;;;;5.15;4.85;;;;;;;;;;5066402;28;20207;-64
2022/07/22 08:21:29;;;;;;;5.70;5.22;;;;;;;;;;5068967;28;20211;-63
2022/07/22 08:23:56;;;;;;;6.68;4.35;;;;;;;;;;5066563;28;20799;-64
2022/07/22 08:26:23;;;;;;;4.85;4.30;;;;;;;;;;5059054;28;20219;-64
2022/07/22 08:28:51;;;;;;;5.40;4.93;;;;;;;;;;5049144;28;20207;-64
2022/07/22 08:31:18;;;;;;;6.03;4.47;;;;;;;;;;5057106;28;20203;-64
2022/07/22 08:33:45;;;;;;;5.93;4.75;;;;;;;;;;5068913;28;20673;-64
2022/07/22 08:36:13;;;;;;;5.03;4.50;;;;;;;;;;5061871;28;20200;-64
2022/07/22 08:38:40;;;;;;;4.72;4.40;;;;;;;;;;5048924;28;20269;-64
2022/07/22 08:41:07;;;;;;;4.57;4.35;;;;;;;;;;5050059;28;20289;-64
2022/07/22 08:43:36;;;;;;;4.50;4.20;;;;;;;;;;5066110;28;20222;-64
2022/07/22 08:46:04;;;;;;;4.50;4.13;;;;;;;;;;5064990;28;20214;-64
2022/07/22 08:48:31;;;;;;;4.82;4.35;;;;;;;;;;5051396;28;20700;-64
2022/07/22 08:50:58;;;;;;;4.72;4.20;;;;;;;;;;5067818;28;20266;-64
2022/07/22 08:53:25;;;;;;;4.57;4.28;;;;;;;;;;5068700;28;20214;-65
2022/07/22 08:55:52;;;;;;;4.43;3.60;;;;;;;;;;5064265;28;20239;-65
2022/07/22 08:58:19;;;;;;;7.35;4.25;;;;;;;;;;5048664;28;20640;-65
2022/07/22 09:00:46;;;;;;;4.50;4.20;;;;;;;;;;5053074;28;20199;-64
2022/07/22 09:03:22;;;;;;;4.57;4.18;;;;;;;;;;5079783;28;20209;-63
2022/07/22 09:05:50;;;;;;;4.78;4.07;;;;;;;;;;5079328;28;20219;-64
2022/07/22 09:08:17;;;;;;;4.93;3.78;;;;;;;;;;5049698;28;20251;-63
2022/07/22 09:10:44;;;;;;;4.80;4.30;;;;;;;;;;5049777;28;20557;-63
2022/07/22 09:13:11;;;;;;;4.25;3.95;;;;;;;;;;5062299;28;20210;-68
2022/07/22 09:15:40;;;;;;;4.35;4.15;;;;;;;;;;5062392;28;20215;-67
2022/07/22 09:18:08;;;;;;;4.53;4.22;;;;;;;;;;5065977;28;20233;-67
2022/07/22 09:20:37;;;;;;;4.00;3.70;;;;;;;;;;5063222;28;20605;-67
2022/07/22 09:23:09;;;;;;;4.07;3.88;;;;;;;;;;5066832;28;20203;-67
2022/07/22 09:25:38;;;;;;;4.63;4.22;;;;;;;;;;5063422;28;20641;-67
2022/07/22 09:28:12;;;;;;;4.28;3.95;;;;;;;;;;5055205;28;20227;-67
2022/07/22 09:30:40;;;;;;;4.72;4.00;;;;;;;;;;5066672;28;20213;-65
2022/07/22 09:33:08;;;;;;;4.15;3.85;;;;;;;;;;5059250;28;20703;-68
2022/07/22 09:35:37;;;;;;;3.67;3.50;;;;;;;;;;5069393;28;20211;-67
2022/07/22 09:38:05;;;;;;;4.30;3.92;;;;;;;;;;5072428;28;20619;-67
2022/07/22 09:40:35;;;;;;;3.67;3.38;;;;;;;;;;5068085;28;20293;-68
2022/07/22 09:43:02;;;;;;;4.32;3.92;;;;;;;;;;5071717;28;20207;-65
2022/07/22 09:45:30;;;;;;;5.80;3.80;;;;;;;;;;5062956;28;20203;-67
2022/07/22 09:47:58;;;;;;;3.90;3.60;;;;;;;;;;5071679;28;20222;-64
2022/07/22 09:50:26;;;;;;;3.83;3.63;;;;;;;;;;5062604;28;20842;-64
2022/07/22 09:52:55;;;;;;;3.65;3.45;;;;;;;;;;5058336;28;20211;-64
2022/07/22 09:55:23;;;;;;;4.18;3.80;;;;;;;;;;5058946;28;20232;-64
2022/07/22 09:57:50;;;;;;;3.53;3.42;;;;;;;;;;5057533;28;20202;-69
2022/07/22 10:00:18;;;;;;;3.55;3.45;;;;;;;;;;5071168;28;20249;-68
2022/07/22 10:02:47;;;;;;;3.60;3.45;;;;;;;;;;5062508;28;20218;-68
2022/07/22 10:05:15;;;;;;;3.85;3.55;;;;;;;;;;5069858;28;20207;-68
2022/07/22 10:07:43;;;;;;;4.03;3.72;;;;;;;;;;5071092;28;20677;-68
2022/07/22 10:10:12;;;;;;;4.10;3.80;;;;;;;;;;5055345;28;20295;-68
2022/07/22 10:12:39;;;;;;;4.10;3.65;;;;;;;;;;5070594;28;20210;-68
2022/07/22 10:15:07;;;;;;;4.00;3.70;;;;;;;;;;5071411;28;20207;-68
2022/07/22 10:17:34;;;;;;;3.90;3.70;;;;;;;;;;5069487;28;20210;-69
2022/07/22 10:20:01;;;;;;;4.20;3.90;;;;;;;;;;5063715;28;20205;-68
2022/07/22 10:22:49;;;;;;;4.28;3.95;;;;;;;;;;5067426;28;20208;-68
2022/07/22 10:25:19;;;;;;;5.45;3.63;;;;;;;;;;5066836;28;20219;-69
2022/07/22 10:27:47;;;;;;;3.55;3.45;;;;;;;;;;5056538;28;20243;-69
2022/07/22 10:30:15;;;;;;;3.60;3.38;;;;;;;;;;5056577;28;20215;-69
2022/07/22 10:32:42;;;;;;;5.03;3.28;;;;;;;;;;5065032;28;20222;-69
2022/07/22 10:35:25;;;;;;;3.72;3.50;;;;;;;;;;5069913;28;20211;-68
2022/07/22 10:38:00;;;;;;;3.55;3.45;;;;;;;;;;5058948;28;20207;-68
2022/07/22 10:40:29;;;;;;;4.18;3.88;;;;;;;;;;5079180;28;20210;-68
2022/07/22 10:43:12;;;;;;;4.30;3.90;;;;;;;;;;5066231;28;20223;-69
2022/07/22 10:45:45;;;;;;;3.63;3.40;;;;;;;;;;5060825;28;20287;-67
2022/07/22 10:48:12;;;;;;;4.10;3.90;;;;;;;;;;5058632;28;20227;-68
2022/07/22 10:50:41;;;;;;;3.40;3.30;;;;;;;;;;5054963;28;20207;-68
2022/07/22 10:53:09;;;;;;;3.92;3.72;;;;;;;;;;5070661;28;20669;-68
2022/07/22 10:55:39;;;;;;;4.00;3.80;;;;;;;;;;5062999;28;20269;-68
2022/07/22 10:58:24;;;;;;;4.00;3.80;;;;;;;;;;5068358;28;20199;-68
2022/07/22 11:00:51;;;;;;;3.80;3.70;;;;;;;;;;5067407;28;20199;-69
2022/07/22 11:03:25;;;;;;;3.38;3.28;;;;;;;;;;5060461;28;20207;-68
2022/07/22 11:05:52;;;;;;;3.55;3.25;;;;;;;;;;5067304;28;20301;-68
2022/07/22 11:08:20;;;;;;;4.30;3.80;;;;;;;;;;5057250;28;20231;-68
2022/07/22 11:10:49;;;;;;;3.60;3.50;;;;;;;;;;5051951;28;20261;-68
2022/07/22 11:13:31;;;;;;;3.95;3.65;;;;;;;;;;5063309;28;20301;-68
2022/07/22 11:16:14;;;;;;;2.97;2.88;;;;;;;;;;5061619;28;20231;-68
2022/07/22 11:18:48;;;;;;;4.22;3.85;;;;;;;;;;5056775;28;20199;-69
2022/07/22 11:21:16;;;;;;;3.78;3.58;;;;;;;;;;5055338;28;20207;-68
2022/07/22 11:23:43;;;;;;;4.22;3.88;;;;;;;;;;5058005;28;20299;-68
2022/07/22 11:26:15;;;;;;;4.28;3.97;;;;;;;;;;5052945;28;20204;-68
2022/07/22 11:28:42;;;;;;;4.00;3.80;;;;;;;;;;5054952;28;20653;-69
2022/07/22 11:31:09;;;;;;;3.88;3.67;;;;;;;;;;5059268;28;20207;-69
2022/07/22 11:33:37;;;;;;;4.57;4.18;;;;;;;;;;5060443;28;20216;-68
2022/07/22 11:36:05;;;;;;;4.10;3.78;;;;;;;;;;5061894;28;20294;-66
2022/07/22 11:38:48;;;;;;;4.00;3.80;;;;;;;;;;5061788;28;20207;-68
2022/07/22 11:41:17;;;;;;;3.95;3.75;;;;;;;;;;5052782;28;20199;-65
2022/07/22 11:43:46;;;;;;;3.30;3.20;;;;;;;;;;5053267;28;20220;-66
2022/07/22 11:46:13;;;;;;;3.70;3.50;;;;;;;;;;5059555;28;20207;-70
2022/07/22 11:48:40;;;;;;;4.05;3.70;;;;;;;;;;5064136;28;20234;-67
2022/07/22 11:51:09;;;;;;;3.72;3.53;;;;;;;;;;5059012;28;20237;-67
2022/07/22 11:53:36;;;;;;;3.80;3.45;;;;;;;;;;5062598;28;20643;-64
2022/07/22 11:56:04;;;;;;;3.70;3.55;;;;;;;;;;5062690;28;20238;-67
2022/07/22 11:58:36;;;;;;;4.43;4.15;;;;;;;;;;5061984;28;20203;-67
2022/07/22 12:01:05;;;;;;;3.97;3.70;;;;;;;;;;5050856;28;20653;-67
2022/07/22 12:03:33;;;;;;;4.60;3.80;;;;;;;;;;5061124;28;20302;-68
2022/07/22 12:06:00;;;;;;;4.15;3.85;;;;;;;;;;5060833;28;20211;-67
2022/07/22 12:08:27;;;;;;;4.10;3.83;;;;;;;;;;5053773;28;20227;-68
2022/07/22 12:10:56;;;;;;;4.00;3.78;;;;;;;;;;5061793;28;20276;-67
2022/07/22 12:13:23;;;;;;;4.10;3.85;;;;;;;;;;5062041;28;20219;-67
2022/07/22 12:15:51;;;;;;;4.00;3.80;;;;;;;;;;5053045;28;20199;-68
2022/07/22 12:18:20;;;;;;;4.50;4.30;;;;;;;;;;5061410;28;20626;-68
2022/07/22 12:20:47;;;;;;;3.88;3.67;;;;;;;;;;5059687;28;20641;-68
2022/07/22 12:23:14;;;;;;;4.20;3.80;;;;;;;;;;5060813;28;20736;-67
2022/07/22 12:25:54;;;;;;;3.47;3.30;;;;;;;;;;5060194;28;20211;-67
2022/07/22 12:28:22;;;;;;;4.05;3.75;;;;;;;;;;5058561;28;20313;-67
2022/07/22 12:30:50;;;;;;;4.45;4.05;;;;;;;;;;5057619;28;20203;-67
2022/07/22 12:33:19;;;;;;;3.90;3.70;;;;;;;;;;5063543;28;20207;-67
2022/07/22 12:35:59;;;;;;;5.97;4.20;;;;;;;;;;5063309;28;20203;-67
2022/07/22 12:38:26;;;;;;;4.20;3.90;;;;;;;;;;5051826;28;20229;-67
2022/07/22 12:40:53;;;;;;;4.53;4.20;;;;;;;;;;5047850;28;20301;-67
2022/07/22 12:43:25;;;;;;;4.40;4.10;;;;;;;;;;5063623;28;20215;-68
2022/07/22 12:45:52;;;;;;;4.78;4.32;;;;;;;;;;5065847;28;20218;-66
2022/07/22 12:48:20;;;;;;;4.53;4.20;;;;;;;;;;5067076;28;20227;-68
2022/07/22 12:50:56;;;;;;;4.55;4.13;;;;;;;;;;5060685;28;20211;-65
2022/07/22 12:53:24;;;;;;;4.93;4.40;;;;;;;;;;5063618;28;20302;-69
2022/07/22 12:55:52;;;;;;;4.45;4.18;;;;;;;;;;5063495;28;20242;-66
2022/07/22 12:58:19;;;;;;;4.72;4.20;;;;;;;;;;5063211;28;20283;-68
2022/07/22 13:00:47;;;;;;;4.07;3.75;;;;;;;;;;5054381;28;20254;-67
2022/07/22 13:03:15;;;;;;;4.30;4.10;;;;;;;;;;5052259;28;20223;-66
2022/07/22 13:05:43;;;;;;;4.20;3.90;;;;;;;;;;5047590;28;20231;-66
2022/07/22 13:08:10;;;;;;;6.32;5.10;;;;;;;;;;5057464;28;20281;-66
2022/07/22 13:10:38;;;;;;;4.22;4.03;;;;;;;;;;5066117;28;20210;-68
2022/07/22 13:13:05;;;;;;;4.82;4.55;;;;;;;;;;5067924;28;20672;-66
2022/07/22 13:15:32;;;;;;;4.35;4.00;;;;;;;;;;5071906;28;20206;-67
2022/07/22 13:17:59;;;;;;;4.45;4.05;;;;;;;;;;5071622;28;20202;-66
2022/07/22 13:20:26;;;;;;;4.65;4.35;;;;;;;;;;5069923;28;20660;-65
2022/07/22 13:22:54;;;;;;;5.00;4.60;;;;;;;;;;5063886;28;20264;-66
2022/07/22 13:25:21;;;;;;;4.60;3.67;;;;;;;;;;5067690;28;20190;-64
2022/07/22 13:27:48;;;;;;;4.57;4.28;;;;;;;;;;5064336;28;20280;-67
2022/07/22 13:30:15;;;;;;;4.43;4.22;;;;;;;;;;5067955;28;20199;-66
2022/07/22 13:32:42;;;;;;;4.47;4.10;;;;;;;;;;5068617;28;20241;-70
2022/07/22 13:35:10;;;;;;;4.13;3.78;;;;;;;;;;5060370;28;20207;-67
2022/07/22 13:37:37;;;;;;;4.25;3.95;;;;;;;;;;5063939;28;20266;-66
2022/07/22 13:40:06;;;;;;;4.57;4.18;;;;;;;;;;5057014;28;20203;-67
2022/07/22 13:42:33;;;;;;;4.15;3.83;;;;;;;;;;5069433;28;20219;-66
2022/07/22 13:45:00;;;;;;;4.55;4.35;;;;;;;;;;5067059;28;20673;-66
2022/07/22 13:47:27;;;;;;;4.82;4.03;;;;;;;;;;5065151;28;20662;-66
2022/07/22 13:49:54;;;;;;;4.50;4.30;;;;;;;;;;5060692;28;20758;-65
2022/07/22 13:52:21;;;;;;;4.70;4.40;;;;;;;;;;5069306;28;20302;-65
2022/07/22 13:54:49;;;;;;;3.92;3.72;;;;;;;;;;5064479;28;20223;-66
2022/07/22 13:57:18;;;;;;;4.15;3.95;;;;;;;;;;5067743;28;20235;-66
2022/07/22 13:59:46;;;;;;;4.22;4.03;;;;;;;;;;5071585;28;20210;-66
2022/07/22 14:02:13;;;;;;;4.32;3.95;;;;;;;;;;5069781;28;20579;-66
2022/07/22 14:04:40;;;;;;;4.50;4.22;;;;;;;;;;5066169;28;20206;-66
2022/07/22 14:07:07;;;;;;;4.28;3.83;;;;;;;;;;5071134;28;20279;-66
2022/07/22 14:09:34;;;;;;;6.65;4.30;;;;;;;;;;5061792;28;20227;-66
2022/07/22 14:12:01;;;;;;;4.28;4.07;;;;;;;;;;5065065;28;20215;-65
2022/07/22 14:14:30;;;;;;;4.43;4.20;;;;;;;;;;5063225;28;20210;-66
2022/07/22 14:16:57;;;;;;;4.38;4.00;;;;;;;;;;5064493;28;20203;-65
2022/07/22 14:19:24;;;;;;;4.93;4.53;;;;;;;;;;5063195;28;20253;-66
2022/07/22 14:21:51;;;;;;;5.15;3.90;;;;;;;;;;5060284;28;20203;-66
2022/07/22 14:24:18;;;;;;;4.25;3.95;;;;;;;;;;5059594;28;20731;-67
2022/07/22 14:26:45;;;;;;;4.72;3.78;;;;;;;;;;5065417;28;20290;-66
2022/07/22 14:29:12;;;;;;;3.83;3.72;;;;;;;;;;5060309;28;20712;-66
2022/07/22 14:31:40;;;;;;;3.80;3.60;;;;;;;;;;5051984;28;20774;-66
2022/07/22 14:34:07;;;;;;;3.83;3.72;;;;;;;;;;5066196;28;20214;-67
2022/07/22 14:36:34;;;;;;;4.03;3.80;;;;;;;;;;5053992;28;20207;-67
2022/07/22 14:39:01;;;;;;;4.65;3.60;;;;;;;;;;5057479;28;20260;-66
2022/07/22 14:41:28;;;;;;;4.30;3.92;;;;;;;;;;5063966;28;20599;-66
2022/07/22 14:43:56;;;;;;;3.83;3.55;;;;;;;;;;5066146;28;20215;-66
2022/07/22 14:46:23;;;;;;;4.57;4.28;;;;;;;;;;5066762;28;20217;-66